Time;durP1;ratioP1;P1;durP2;ratioP2;P2;SDS_P1;SDS_P2;PMS_P1;PMS_P2;Temp;Humidity;BMP_temperature;BMP_pressure;BME280_temperature;BME280_humidity;BME280_pressure;Samples;Min_cycle;Max_cycle;Signal;HPM_P1;HPM_P2
2022/01/16 00:04:16;;;;;;;39.20;18.48;;;1.00;99.90;;;;;;4943628;29;20039;-81
2022/01/16 00:06:45;;;;;;;37.95;16.65;;;1.10;99.90;;;;;;4943335;29;20043;-81
2022/01/16 00:09:11;;;;;;;41.63;17.92;;;1.10;99.90;;;;;;4944645;29;20301;-81
2022/01/16 00:11:38;;;;;;;38.83;17.83;;;1.20;99.90;;;;;;4943257;29;20087;-81
2022/01/16 00:14:11;;;;;;;38.45;18.42;;;1.20;99.90;;;;;;4943801;29;20311;-81
2022/01/16 00:16:39;;;;;;;38.47;16.95;;;1.10;99.90;;;;;;4926475;29;20039;-81
2022/01/16 00:19:13;;;;;;;39.72;18.52;;;1.10;99.90;;;;;;4943450;29;20044;-81
2022/01/16 00:21:42;;;;;;;38.28;18.23;;;1.00;99.90;;;;;;4944360;29;20031;-81
2022/01/16 00:24:13;;;;;;;40.35;19.10;;;1.00;99.90;;;;;;4932838;29;20088;-81
2022/01/16 00:26:40;;;;;;;41.33;19.08;;;0.90;99.90;;;;;;4943181;29;20027;-80
2022/01/16 00:29:08;;;;;;;42.15;18.75;;;0.80;99.90;;;;;;4963114;28;20191;-80
2022/01/16 00:31:38;;;;;;;40.63;19.02;;;0.80;99.90;;;;;;4962915;28;20231;-81
2022/01/16 00:34:08;;;;;;;40.90;19.63;;;0.80;99.90;;;;;;4963595;28;20039;-81
2022/01/16 00:36:34;;;;;;;44.03;20.15;;;0.90;99.90;;;;;;4962674;29;20034;-83
2022/01/16 00:38:59;;;;;;;42.78;20.15;;;0.90;99.90;;;;;;4953279;28;20098;-83
2022/01/16 00:41:28;;;;;;;43.83;19.13;;;0.90;99.90;;;;;;4945087;29;20035;-82
2022/01/16 00:43:54;;;;;;;43.85;19.88;;;0.90;99.90;;;;;;4947522;29;20039;-80
2022/01/16 00:46:20;;;;;;;41.50;19.58;;;1.00;99.90;;;;;;4948134;29;20040;-81
2022/01/16 00:48:46;;;;;;;42.17;20.05;;;1.00;99.90;;;;;;4947849;29;20034;-80
2022/01/16 00:51:37;;;;;;;44.35;20.58;;;0.90;99.90;;;;;;4958524;29;20341;-83
2022/01/16 00:54:03;;;;;;;40.22;18.83;;;0.90;99.90;;;;;;4962983;29;20031;-81
2022/01/16 00:56:29;;;;;;;40.75;19.20;;;1.10;99.90;;;;;;4946822;29;20051;-80
2022/01/16 00:58:54;;;;;;;41.30;20.17;;;1.20;99.90;;;;;;4962675;28;20035;-81
2022/01/16 01:01:20;;;;;;;43.70;19.75;;;1.30;99.90;;;;;;4962143;29;20040;-81
2022/01/16 01:03:46;;;;;;;39.88;18.88;;;1.30;99.90;;;;;;4947600;29;20019;-80
2022/01/16 01:06:12;;;;;;;41.78;19.42;;;1.10;99.90;;;;;;4948289;29;20028;-80
2022/01/16 01:08:41;;;;;;;39.28;19.23;;;1.10;99.90;;;;;;4947478;29;20031;-81
2022/01/16 01:11:16;;;;;;;40.45;19.30;;;1.00;99.90;;;;;;4947752;29;20031;-80
2022/01/16 01:14:15;;;;;;;41.13;19.85;;;1.10;99.90;;;;;;4947502;29;20042;-80
2022/01/16 01:16:53;;;;;;;40.60;20.10;;;1.10;99.90;;;;;;4962327;29;20028;-80
2022/01/16 01:19:32;;;;;;;42.15;19.20;;;1.10;99.90;;;;;;4947879;29;20043;-80
2022/01/16 01:22:04;;;;;;;43.75;20.25;;;0.90;99.90;;;;;;4948084;29;20075;-81
2022/01/16 01:24:31;;;;;;;41.05;19.52;;;0.90;99.90;;;;;;4947037;29;20263;-81
2022/01/16 01:27:12;;;;;;;43.58;20.05;;;0.80;99.90;;;;;;4947844;29;20194;-80
2022/01/16 01:29:41;;;;;;;36.75;18.25;;;0.80;99.90;;;;;;4947115;29;20038;-79
2022/01/16 01:32:07;;;;;;;40.60;18.05;;;0.80;99.90;;;;;;4947439;29;20063;-82
2022/01/16 01:34:33;;;;;;;40.38;18.67;;;0.90;99.90;;;;;;4946827;29;20067;-81
2022/01/16 01:36:58;;;;;;;42.97;18.55;;;0.80;99.90;;;;;;4947494;29;20063;-80
2022/01/16 01:39:24;;;;;;;39.80;19.17;;;0.70;99.90;;;;;;4968450;28;20046;-81
2022/01/16 01:41:55;;;;;;;43.30;19.38;;;0.80;99.90;;;;;;4952279;28;20281;-81
2022/01/16 01:52:35;;;;;;;40.13;18.75;;;0.90;99.90;;;;;;4985004;28;20054;-80
2022/01/16 01:55:01;;;;;;;39.30;17.85;;;0.80;99.90;;;;;;4967619;28;20026;-81
2022/01/16 01:57:27;;;;;;;38.30;18.38;;;0.80;99.90;;;;;;4968420;28;20038;-80
2022/01/16 01:59:52;;;;;;;37.08;18.60;;;0.70;99.90;;;;;;4985247;28;20073;-81
2022/01/16 02:02:23;;;;;;;38.90;18.08;;;0.80;99.90;;;;;;4985501;28;20027;-81
2022/01/16 02:04:49;;;;;;;38.67;18.20;;;0.70;99.90;;;;;;4951765;28;20031;-81
2022/01/16 02:07:15;;;;;;;40.83;19.02;;;0.80;99.90;;;;;;4984196;28;20078;-81
2022/01/16 02:09:41;;;;;;;36.13;18.52;;;0.80;99.90;;;;;;4969882;28;20332;-81
2022/01/16 02:12:08;;;;;;;37.50;17.67;;;0.90;99.90;;;;;;4974356;28;20184;-79
2022/01/16 02:14:49;;;;;;;38.63;18.13;;;1.00;99.90;;;;;;4969340;28;20061;-81
2022/01/16 02:28:25;;;;;;;39.95;18.58;;;1.00;99.90;;;;;;4985252;28;20245;-81
2022/01/16 02:38:51;;;;;;;37.67;18.42;;;1.20;99.90;;;;;;4967197;28;20379;-80
2022/01/16 02:41:17;;;;;;;34.70;17.27;;;1.40;99.90;;;;;;4967595;28;20033;-80
2022/01/16 02:43:50;;;;;;;38.72;17.80;;;1.40;99.90;;;;;;4983920;28;20225;-81
2022/01/16 02:48:48;;;;;;;36.05;17.83;;;1.40;99.90;;;;;;4967195;28;20057;-81
2022/01/16 02:51:20;;;;;;;40.20;18.88;;;1.40;99.90;;;;;;4984831;28;20039;-80
2022/01/16 02:53:47;;;;;;;41.15;19.02;;;1.30;99.90;;;;;;4966825;28;20027;-81
2022/01/16 02:56:14;;;;;;;28.80;13.53;;;1.40;99.90;;;;;;4984635;28;20035;-81
2022/01/16 02:58:40;;;;;;;36.80;18.33;;;1.40;99.90;;;;;;4983956;28;20031;-80
2022/01/16 03:01:06;;;;;;;40.08;19.48;;;1.40;99.90;;;;;;4984396;28;20029;-80
2022/01/16 03:03:32;;;;;;;40.58;19.00;;;1.50;99.90;;;;;;4967001;28;20185;-80
2022/01/16 03:05:58;;;;;;;39.45;19.73;;;1.30;99.90;;;;;;4966402;28;20029;-80
2022/01/16 03:08:24;;;;;;;43.75;19.95;;;1.30;99.90;;;;;;4984080;28;20041;-80
2022/01/16 03:11:13;;;;;;;41.80;19.20;;;1.30;99.90;;;;;;4950536;28;20069;-80
2022/01/16 03:13:49;;;;;;;40.58;20.00;;;1.30;99.90;;;;;;4983663;28;20034;-80
2022/01/16 03:16:17;;;;;;;39.25;19.17;;;1.20;99.90;;;;;;4982734;28;20217;-80
2022/01/16 03:24:12;;;;;;;40.38;19.30;;;1.30;99.90;;;;;;4966902;28;20037;-81
2022/01/16 03:26:38;;;;;;;38.08;18.65;;;1.40;99.90;;;;;;4983585;28;20059;-81
2022/01/16 03:29:04;;;;;;;40.70;18.30;;;1.40;99.90;;;;;;4967003;28;20037;-80
2022/01/16 03:31:30;;;;;;;40.72;19.23;;;1.40;99.90;;;;;;4982899;28;20077;-80
2022/01/16 03:33:56;;;;;;;40.67;19.33;;;1.30;99.90;;;;;;4981959;28;20033;-80
2022/01/16 03:36:22;;;;;;;41.30;18.55;;;1.20;99.90;;;;;;4966583;28;20237;-80
2022/01/16 03:38:48;;;;;;;39.38;19.45;;;1.10;99.90;;;;;;4965520;28;20112;-80
2022/01/16 03:41:14;;;;;;;41.33;18.95;;;1.00;99.90;;;;;;4983819;28;20325;-80
2022/01/16 03:43:40;;;;;;;38.90;19.02;;;1.00;99.90;;;;;;4966196;28;20038;-80
2022/01/16 03:46:05;;;;;;;40.55;20.30;;;0.90;99.90;;;;;;4983797;28;20213;-80
2022/01/16 03:48:31;;;;;;;42.45;19.58;;;1.00;99.90;;;;;;4982634;28;20148;-80
2022/01/16 03:50:57;;;;;;;42.53;20.00;;;0.90;99.90;;;;;;4982386;28;20022;-79
2022/01/16 03:53:26;;;;;;;38.50;19.25;;;0.70;99.90;;;;;;4950500;28;20359;-79
2022/01/16 03:55:52;;;;;;;37.55;18.75;;;0.70;99.90;;;;;;4981978;28;20391;-79
2022/01/16 03:58:18;;;;;;;39.33;18.30;;;0.60;99.90;;;;;;4983333;28;20042;-79
2022/01/16 04:00:44;;;;;;;36.42;18.08;;;0.60;99.90;;;;;;4965990;28;20030;-80
2022/01/16 04:03:11;;;;;;;37.72;18.10;;;0.60;99.90;;;;;;4983680;28;20030;-79
2022/01/16 04:05:37;;;;;;;34.60;17.73;;;0.50;99.90;;;;;;4966510;28;20046;-81
2022/01/16 04:08:03;;;;;;;35.55;18.23;;;0.50;99.90;;;;;;4983061;28;20325;-80
2022/01/16 04:10:29;;;;;;;36.75;18.08;;;0.50;99.90;;;;;;4966245;28;20094;-81
2022/01/16 04:12:55;;;;;;;37.00;18.52;;;0.60;99.90;;;;;;4965838;28;20026;-80
2022/01/16 04:17:47;;;;;;;37.20;18.33;;;0.50;99.90;;;;;;4985799;28;20034;-81
2022/01/16 04:20:16;;;;;;;41.17;18.98;;;0.50;99.90;;;;;;4954259;28;20027;-81
2022/01/16 04:22:45;;;;;;;43.25;19.65;;;0.40;99.90;;;;;;4969552;28;20056;-80
2022/01/16 04:25:12;;;;;;;45.40;20.30;;;0.40;99.90;;;;;;4986229;28;20031;-81
2022/01/16 04:27:37;;;;;;;48.13;21.67;;;0.30;99.90;;;;;;4987030;28;20237;-81
2022/01/16 04:30:04;;;;;;;42.20;20.55;;;0.30;99.90;;;;;;4969604;28;20078;-81
2022/01/16 04:32:30;;;;;;;39.58;18.63;;;0.30;99.90;;;;;;4985855;28;20042;-81
2022/01/16 04:34:56;;;;;;;42.10;19.88;;;0.20;99.90;;;;;;4985365;28;20074;-81
2022/01/16 04:37:22;;;;;;;41.10;19.75;;;0.20;99.90;;;;;;4969570;28;20046;-81
2022/01/16 04:39:52;;;;;;;40.40;18.65;;;0.30;99.90;;;;;;4968805;28;20325;-81
2022/01/16 04:45:04;;;;;;;42.15;19.30;;;0.30;99.90;;;;;;4986416;28;20138;-82
2022/01/16 04:47:30;;;;;;;40.42;19.45;;;0.20;99.90;;;;;;4987010;28;20209;-82
2022/01/16 04:49:56;;;;;;;39.22;18.50;;;0.10;99.90;;;;;;4985284;28;20061;-82
2022/01/16 04:52:22;;;;;;;39.05;18.58;;;0.10;99.90;;;;;;4971710;28;20318;-82
2022/01/16 04:55:17;;;;;;;38.58;18.23;;;0.10;99.90;;;;;;4992870;28;20018;-82
2022/01/16 04:57:43;;;;;;;40.47;19.73;;;0.10;99.90;;;;;;4966816;28;20042;-82
2022/01/16 05:04:15;;;;;;;43.67;18.90;;;0.00;99.90;;;;;;4986739;28;20102;-81
2022/01/16 05:06:44;;;;;;;37.70;17.92;;;0.00;99.90;;;;;;4969581;28;20324;-81
2022/01/16 05:09:10;;;;;;;36.35;18.10;;;0.00;99.90;;;;;;4986539;28;20101;-81
2022/01/16 05:11:37;;;;;;;38.45;18.88;;;0.00;99.90;;;;;;4986436;28;20034;-81
2022/01/16 05:16:35;;;;;;;37.10;17.52;;;0.10;99.90;;;;;;4986479;28;20454;-81
2022/01/16 05:19:07;;;;;;;38.10;18.40;;;0.10;99.90;;;;;;4968749;28;20111;-81
2022/01/16 05:21:42;;;;;;;36.85;18.00;;;0.10;99.90;;;;;;4986396;28;20030;-81
2022/01/16 05:24:14;;;;;;;35.38;17.83;;;0.10;99.90;;;;;;4985896;28;20047;-81
2022/01/16 05:26:42;;;;;;;33.97;17.10;;;0.10;99.90;;;;;;4986082;28;20031;-82
2022/01/16 05:29:25;;;;;;;;;;;;;;;;;;;;;
2022/01/16 05:32:17;;;;;;;30.30;16.08;;;0.10;99.90;;;;;;4986018;28;19944;-82
2022/01/16 05:34:43;;;;;;;36.38;17.38;;;0.10;99.90;;;;;;4986444;28;20126;-81
2022/01/16 05:37:09;;;;;;;37.13;18.60;;;0.10;99.90;;;;;;4972012;28;20031;-81
2022/01/16 05:39:35;;;;;;;32.88;17.70;;;0.10;99.90;;;;;;4977114;28;20432;-80
2022/01/16 05:42:01;;;;;;;32.55;16.85;;;0.20;99.90;;;;;;4968515;28;20030;-80
2022/01/16 05:44:29;;;;;;;34.53;17.13;;;0.20;99.90;;;;;;4985848;28;20038;-81
2022/01/16 05:46:55;;;;;;;34.95;17.10;;;0.20;99.90;;;;;;4985408;28;20213;-80
2022/01/16 05:49:21;;;;;;;36.20;18.63;;;0.20;99.90;;;;;;4985455;28;20043;-80
2022/01/16 05:51:47;;;;;;;32.47;18.20;;;0.20;99.90;;;;;;4985121;28;20131;-81
2022/01/16 05:54:13;;;;;;;31.13;18.05;;;0.00;99.90;;;;;;4968590;28;20026;-81
2022/01/16 05:56:38;;;;;;;34.15;17.27;;;0.00;99.90;;;;;;4968591;28;20030;-80
2022/01/16 05:59:04;;;;;;;35.15;18.35;;;-0.10;99.90;;;;;;4985336;28;20065;-80
2022/01/16 06:01:30;;;;;;;30.20;17.30;;;-0.20;99.90;;;;;;4980187;28;20031;-81
2022/01/16 06:03:56;;;;;;;30.60;16.85;;;-0.30;99.90;;;;;;4950604;28;20027;-79
2022/01/16 06:06:21;;;;;;;31.85;16.58;;;-0.40;99.90;;;;;;4976877;28;20222;-82
2022/01/16 06:08:48;;;;;;;33.25;18.05;;;-0.40;99.90;;;;;;4966994;28;20233;-80
2022/01/16 06:11:14;;;;;;;33.42;17.50;;;-0.50;99.90;;;;;;4952572;28;20031;-81
2022/01/16 06:13:40;;;;;;;32.65;17.58;;;-0.50;99.90;;;;;;4965729;29;20034;-81
2022/01/16 06:16:06;;;;;;;33.25;18.02;;;-0.60;99.90;;;;;;4947754;29;20047;-80
2022/01/16 06:18:54;;;;;;;31.58;17.38;;;-0.50;99.90;;;;;;4954584;28;20030;-80
2022/01/16 06:21:19;;;;;;;32.83;17.45;;;-0.60;99.90;;;;;;4984237;28;20039;-79
2022/01/16 06:23:45;;;;;;;31.48;17.63;;;-0.60;99.90;;;;;;4984986;28;20027;-80
2022/01/16 06:26:11;;;;;;;35.75;18.42;;;-0.70;99.90;;;;;;4951662;28;20026;-80
2022/01/16 06:28:37;;;;;;;36.50;18.45;;;-0.80;99.90;;;;;;4984916;28;20049;-80
2022/01/16 06:31:03;;;;;;;34.17;18.65;;;-0.80;99.90;;;;;;4983111;28;20030;-80
2022/01/16 06:33:29;;;;;;;34.53;17.75;;;-0.80;99.90;;;;;;4967956;28;20049;-80
2022/01/16 06:35:55;;;;;;;31.77;17.17;;;-0.80;99.90;;;;;;4975987;28;20029;-80
2022/01/16 06:38:21;;;;;;;35.33;18.55;;;-0.90;99.90;;;;;;4948359;29;20035;-80
2022/01/16 06:40:47;;;;;;;39.55;18.73;;;-0.90;99.90;;;;;;4964638;28;20055;-80
2022/01/16 06:43:13;;;;;;;36.28;18.33;;;-0.90;99.90;;;;;;4948033;29;20031;-80
2022/01/16 06:45:38;;;;;;;34.25;17.50;;;-1.00;99.90;;;;;;4948027;29;20032;-81
2022/01/16 06:48:16;;;;;;;35.28;16.90;;;-1.00;99.90;;;;;;4932582;29;20157;-80
2022/01/16 06:50:42;;;;;;;35.13;17.00;;;-1.10;99.90;;;;;;4948272;29;20059;-80
2022/01/16 06:53:08;;;;;;;36.13;17.88;;;-1.20;99.90;;;;;;4948079;29;20031;-80
2022/01/16 06:55:33;;;;;;;35.35;17.63;;;-1.20;99.90;;;;;;4948042;29;20031;-81
2022/01/16 06:57:59;;;;;;;39.83;18.23;;;-1.30;99.90;;;;;;4931467;29;20051;-81
2022/01/16 07:00:25;;;;;;;34.00;17.92;;;-1.30;99.90;;;;;;4947282;28;20098;-80
2022/01/16 07:02:51;;;;;;;35.78;18.63;;;-1.40;99.90;;;;;;4946833;28;20030;-81
2022/01/16 07:05:17;;;;;;;36.95;17.65;;;-1.50;99.90;;;;;;4985319;28;20035;-81
2022/01/16 07:07:43;;;;;;;34.00;16.83;;;-1.60;99.90;;;;;;4968426;28;20361;-80
2022/01/16 07:10:09;;;;;;;34.60;17.52;;;-1.60;99.90;;;;;;4983728;28;20026;-80
2022/01/16 07:12:35;;;;;;;32.45;17.05;;;-1.70;99.90;;;;;;4967343;28;20038;-80
2022/01/16 07:15:04;;;;;;;37.05;17.60;;;-1.70;99.90;;;;;;4950316;28;20026;-80
2022/01/16 07:17:30;;;;;;;34.13;17.40;;;-1.70;99.90;;;;;;4966658;28;20045;-81
2022/01/16 07:19:56;;;;;;;32.33;16.40;;;-1.80;99.90;;;;;;4983582;28;20026;-80
2022/01/16 07:22:23;;;;;;;31.00;15.88;;;-1.80;99.90;;;;;;4967103;28;20023;-80
2022/01/16 07:24:52;;;;;;;32.67;16.55;;;-1.80;99.90;;;;;;4966708;28;20023;-79
2022/01/16 07:27:24;;;;;;;35.38;17.63;;;-1.70;99.90;;;;;;4966743;28;20049;-81
2022/01/16 07:30:09;;;;;;;31.70;16.70;;;-1.70;99.90;;;;;;4967458;28;20026;-80
2022/01/16 07:32:42;;;;;;;34.03;16.65;;;-1.80;99.90;;;;;;4969383;28;20039;-79
2022/01/16 07:35:09;;;;;;;33.88;17.02;;;-1.70;99.90;;;;;;4964827;28;20340;-81
2022/01/16 07:37:34;;;;;;;31.30;16.48;;;-1.70;99.90;;;;;;4964541;29;20058;-80
2022/01/16 07:40:09;;;;;;;33.30;16.80;;;-1.60;99.90;;;;;;4966080;28;20046;-80
2022/01/16 07:43:29;;;;;;;37.20;19.05;;;-1.30;99.90;;;;;;4983787;28;20030;-80
2022/01/16 07:45:54;;;;;;;34.50;17.48;;;-1.10;99.90;;;;;;4974612;28;20055;-81
2022/01/16 07:48:20;;;;;;;29.85;15.68;;;-0.90;99.90;;;;;;4964575;29;20360;-80
2022/01/16 07:50:55;;;;;;;34.80;16.38;;;-0.80;99.90;;;;;;4964415;28;20310;-78
2022/01/16 07:53:26;;;;;;;32.40;17.40;;;-0.70;99.90;;;;;;4947623;29;20301;-79
2022/01/16 07:55:52;;;;;;;29.83;15.90;;;-0.60;99.90;;;;;;4964023;29;20031;-80
2022/01/16 07:58:19;;;;;;;28.70;14.75;;;-0.50;99.90;;;;;;4930880;29;20242;-79
2022/01/16 08:00:44;;;;;;;30.08;15.60;;;-0.50;99.90;;;;;;4963581;29;20035;-80
2022/01/16 08:03:10;;;;;;;27.95;14.75;;;-0.40;99.90;;;;;;4962052;28;20095;-81
2022/01/16 08:05:48;;;;;;;26.70;14.65;;;-0.30;99.90;;;;;;4943657;29;20106;-78
2022/01/16 08:11:10;;;;;;;28.50;14.68;;;-0.20;99.90;;;;;;4943500;29;20102;-79
2022/01/16 08:13:37;;;;;;;25.92;14.75;;;-0.30;99.90;;;;;;4927940;29;20032;-80
2022/01/16 08:16:03;;;;;;;26.60;14.00;;;-0.30;99.90;;;;;;4926981;29;20054;-80
2022/01/16 08:18:29;;;;;;;28.10;14.63;;;-0.50;99.90;;;;;;4943685;29;20043;-80
2022/01/16 08:20:55;;;;;;;26.90;15.20;;;-0.50;99.90;;;;;;4944187;29;20322;-80
2022/01/16 08:23:24;;;;;;;29.02;15.18;;;-0.60;99.90;;;;;;4944546;29;20259;-80
2022/01/16 08:26:04;;;;;;;28.95;15.73;;;-0.50;99.90;;;;;;4942935;29;20040;-80
2022/01/16 08:28:30;;;;;;;26.88;14.98;;;-0.20;99.90;;;;;;4943672;29;20207;-80
2022/01/16 08:30:56;;;;;;;29.15;15.38;;;-0.30;99.90;;;;;;4944082;28;20040;-81
2022/01/16 08:33:22;;;;;;;29.23;16.17;;;-0.10;99.90;;;;;;4944750;29;20034;-81
2022/01/16 08:35:48;;;;;;;30.63;15.35;;;-0.30;99.90;;;;;;4944591;29;20028;-81
2022/01/16 08:38:13;;;;;;;25.95;15.52;;;-0.30;99.90;;;;;;4949455;29;20034;-82
2022/01/16 08:40:39;;;;;;;28.67;15.98;;;-0.30;99.90;;;;;;4963787;28;20043;-80
2022/01/16 08:43:11;;;;;;;28.48;16.38;;;-0.30;99.90;;;;;;4946218;29;20027;-80
2022/01/16 08:45:38;;;;;;;31.17;17.35;;;0.00;99.90;;;;;;4965938;28;20073;-80
2022/01/16 08:48:05;;;;;;;31.38;16.88;;;0.10;99.90;;;;;;4966486;28;20380;-80
2022/01/16 08:50:33;;;;;;;28.95;15.75;;;0.40;99.90;;;;;;4983647;28;20086;-80
2022/01/16 08:52:59;;;;;;;30.80;17.02;;;0.60;99.90;;;;;;4965393;28;20034;-80
2022/01/16 08:55:28;;;;;;;30.85;16.17;;;0.80;99.90;;;;;;4965996;28;20122;-81
2022/01/16 08:57:58;;;;;;;30.23;16.50;;;0.90;99.90;;;;;;4965554;28;20044;-82
2022/01/16 09:00:35;;;;;;;30.30;17.58;;;1.00;99.90;;;;;;4966667;28;20236;-81
2022/01/16 09:03:01;;;;;;;28.38;16.08;;;1.10;99.90;;;;;;4967997;28;20026;-80
2022/01/16 09:05:30;;;;;;;29.27;16.15;;;0.80;99.90;;;;;;4987016;28;20018;-80
2022/01/16 09:07:55;;;;;;;33.47;17.75;;;0.80;99.90;;;;;;4986681;28;20035;-80
2022/01/16 09:10:22;;;;;;;31.70;15.90;;;0.90;99.90;;;;;;4967390;29;20287;-80
2022/01/16 09:12:50;;;;;;;26.58;15.63;;;0.80;99.90;;;;;;4966379;29;20031;-80
2022/01/16 09:15:16;;;;;;;30.52;16.13;;;0.90;99.90;;;;;;4965839;28;20035;-79
2022/01/16 09:17:45;;;;;;;27.55;15.52;;;0.90;99.90;;;;;;4952092;29;20038;-79
2022/01/16 09:20:13;;;;;;;;;;;1.00;99.90;;;;;;4968393;29;20031;-79
2022/01/16 09:22:44;;;;;;;32.50;15.77;;;1.00;99.90;;;;;;4950815;29;19906;-80
2022/01/16 09:25:11;;;;;;;31.10;16.75;;;1.00;99.90;;;;;;4966129;29;20027;-79
2022/01/16 09:28:02;;;;;;;30.48;17.13;;;1.00;99.90;;;;;;4968083;29;20031;-79
2022/01/16 09:30:44;;;;;;;30.92;15.90;;;1.10;99.90;;;;;;4968046;28;20027;-81
2022/01/16 09:33:12;;;;;;;31.83;17.17;;;1.20;99.90;;;;;;4965200;28;20062;-79
2022/01/16 09:35:38;;;;;;;30.25;15.57;;;1.30;99.90;;;;;;4950022;29;20218;-79
2022/01/16 09:38:05;;;;;;;29.55;16.50;;;1.20;99.90;;;;;;4970039;28;20034;-79
2022/01/16 09:40:31;;;;;;;31.52;17.50;;;1.10;99.90;;;;;;4968697;28;20070;-79
2022/01/16 09:42:57;;;;;;;28.80;16.50;;;1.10;99.90;;;;;;4985951;28;20061;-79
2022/01/16 09:45:23;;;;;;;30.92;17.63;;;1.40;99.90;;;;;;4951861;28;20046;-80
2022/01/16 09:47:51;;;;;;;28.25;16.48;;;1.50;99.90;;;;;;4968382;28;20052;-80
2022/01/16 10:00:15;;;;;;;33.30;18.20;;;1.70;99.90;;;;;;5228905;23;20069;-80
2022/01/16 10:02:44;;;;;;;29.95;16.73;;;1.60;99.90;;;;;;5007680;28;20068;-81
2022/01/16 10:05:28;;;;;;;28.55;15.77;;;1.60;99.90;;;;;;4990325;28;20026;-80
2022/01/16 10:07:56;;;;;;;29.63;16.33;;;1.60;99.90;;;;;;5023978;28;20312;-81
2022/01/16 10:10:27;;;;;;;27.42;15.95;;;1.80;99.90;;;;;;5023912;28;20037;-80
2022/01/16 10:12:55;;;;;;;29.48;16.15;;;1.70;99.90;;;;;;5006867;28;20145;-81
2022/01/16 10:15:28;;;;;;;27.70;16.52;;;1.80;99.90;;;;;;5021992;28;20244;-81
2022/01/16 10:18:04;;;;;;;27.17;16.27;;;1.80;99.90;;;;;;5005136;28;20026;-80
2022/01/16 10:20:46;;;;;;;29.10;16.60;;;2.00;99.90;;;;;;5004482;28;20069;-82
2022/01/16 10:23:21;;;;;;;26.85;16.15;;;2.20;99.90;;;;;;5002771;28;20098;-81
2022/01/16 10:25:48;;;;;;;28.23;15.90;;;2.20;99.90;;;;;;5003303;28;20374;-83
2022/01/16 10:28:20;;;;;;;27.85;16.27;;;2.10;99.90;;;;;;4986480;28;20080;-81
2022/01/16 10:30:52;;;;;;;26.10;16.02;;;2.10;99.90;;;;;;4986634;28;20042;-80
2022/01/16 10:33:21;;;;;;;29.42;16.58;;;2.10;99.90;;;;;;4999458;28;20118;-80
2022/01/16 10:35:50;;;;;;;29.58;16.23;;;2.10;99.90;;;;;;4968319;28;20304;-81
2022/01/16 10:38:27;;;;;;;28.42;16.20;;;2.50;99.90;;;;;;4970538;28;20064;-79
2022/01/16 10:40:55;;;;;;;28.20;15.82;;;2.70;99.90;;;;;;5002457;28;20368;-78
2022/01/16 10:43:38;;;;;;;28.23;16.40;;;2.80;99.90;;;;;;5003345;28;20305;-79
2022/01/16 10:46:08;;;;;;;28.65;16.73;;;2.80;99.90;;;;;;4985119;28;20113;-79
2022/01/16 10:48:35;;;;;;;27.48;15.98;;;3.10;99.90;;;;;;5003512;28;20050;-80
2022/01/16 10:51:01;;;;;;;28.20;16.08;;;3.30;99.90;;;;;;5003656;28;20049;-78
2022/01/16 10:53:29;;;;;;;27.13;15.38;;;3.30;99.90;;;;;;5003287;28;20022;-80
2022/01/16 10:56:02;;;;;;;28.88;16.23;;;3.40;99.90;;;;;;4986511;28;20023;-80
2022/01/16 10:58:37;;;;;;;26.27;16.52;;;3.40;99.90;;;;;;5002904;28;20309;-82
2022/01/16 11:01:10;;;;;;;26.13;15.63;;;3.30;99.90;;;;;;4985883;28;20042;-80
2022/01/16 11:04:02;;;;;;;24.85;14.88;;;3.60;99.90;;;;;;4986935;28;20301;-81
2022/01/16 11:06:29;;;;;;;26.27;14.88;;;3.60;99.90;;;;;;4984368;28;20038;-79
2022/01/16 11:09:01;;;;;;;28.55;15.73;;;3.80;99.90;;;;;;4986062;28;20133;-80
2022/01/16 11:11:27;;;;;;;27.58;15.15;;;3.50;99.90;;;;;;4986040;28;20327;-80
2022/01/16 11:13:56;;;;;;;27.48;16.00;;;3.50;99.90;;;;;;5003595;28;20259;-80
2022/01/16 11:16:23;;;;;;;25.08;15.05;;;3.30;99.90;;;;;;4984843;28;20335;-80
2022/01/16 11:18:51;;;;;;;29.73;16.00;;;3.50;99.90;;;;;;4983446;28;20129;-80
2022/01/16 11:21:32;;;;;;;28.70;16.70;;;3.40;99.90;;;;;;4982327;28;20052;-79
2022/01/16 11:26:27;;;;;;;30.02;15.85;;;3.60;99.90;;;;;;4983219;28;20021;-81
2022/01/16 11:28:55;;;;;;;26.50;16.30;;;3.90;99.90;;;;;;4967501;28;20214;-80
2022/01/16 11:31:21;;;;;;;26.88;16.50;;;3.90;99.90;;;;;;4981387;28;20066;-81
2022/01/16 11:33:47;;;;;;;27.20;15.93;;;4.00;99.90;;;;;;4983433;28;20387;-80
2022/01/16 11:36:20;;;;;;;28.58;17.27;;;4.10;99.90;;;;;;4971223;28;20102;-82
2022/01/16 11:38:55;;;;;;;28.20;16.52;;;4.20;99.90;;;;;;4966135;28;20313;-81
2022/01/16 11:41:46;;;;;;;29.42;16.83;;;4.10;99.90;;;;;;4950887;28;20047;-81
2022/01/16 11:44:29;;;;;;;30.48;17.02;;;4.20;99.90;;;;;;4966928;28;20026;-82
2022/01/16 11:46:58;;;;;;;25.80;16.10;;;4.50;99.90;;;;;;4965570;28;20108;-81
2022/01/16 11:57:21;;;;;;;27.95;16.67;;;4.80;99.90;;;;;;4983781;28;20025;-84
2022/01/16 11:59:54;;;;;;;29.85;16.52;;;4.60;99.90;;;;;;4958310;28;20054;-83
2022/01/16 12:02:24;;;;;;;30.13;16.65;;;4.20;99.90;;;;;;4981406;28;20043;-81
2022/01/16 12:04:54;;;;;;;27.50;16.60;;;4.00;99.90;;;;;;4983608;28;20305;-80
2022/01/16 12:07:20;;;;;;;31.33;18.60;;;4.00;99.90;;;;;;4981814;28;20019;-80
2022/01/16 12:09:53;;;;;;;36.55;18.90;;;3.90;99.90;;;;;;4998793;28;20309;-83
2022/01/16 12:12:19;;;;;;;37.95;18.90;;;3.60;99.90;;;;;;4994513;28;20034;-80
2022/01/16 12:18:33;;;;;;;;;;;3.60;99.90;;;;;;5002317;28;20049;-80
2022/01/16 12:21:29;;;;;;;34.35;18.52;;;3.90;99.90;;;;;;4985154;28;19906;-80
2022/01/16 12:23:54;;;;;;;34.92;16.83;;;3.90;99.90;;;;;;4983094;28;20034;-81
2022/01/16 12:26:34;;;;;;;35.85;18.98;;;4.10;99.90;;;;;;4998084;28;20070;-81
2022/01/16 12:28:59;;;;;;;33.88;18.05;;;4.10;99.90;;;;;;4996606;28;20034;-81
2022/01/16 12:31:35;;;;;;;32.63;17.15;;;4.20;99.90;;;;;;4996436;28;20046;-81
2022/01/16 12:34:01;;;;;;;32.90;16.83;;;4.20;99.90;;;;;;4981679;28;20217;-83
2022/01/16 12:36:34;;;;;;;36.25;17.67;;;4.20;99.90;;;;;;4992708;28;20097;-81
2022/01/16 12:39:03;;;;;;;27.63;14.15;;;4.00;99.90;;;;;;4988612;28;20108;-81
2022/01/16 12:41:41;;;;;;;28.05;14.52;;;3.90;99.90;;;;;;5026016;28;20042;-82
2022/01/16 12:44:19;;;;;;;28.77;14.63;;;3.90;99.90;;;;;;5005110;28;20313;-82
2022/01/16 12:46:52;;;;;;;22.45;11.88;;;4.00;99.90;;;;;;4985746;28;20106;-83
2022/01/16 12:49:26;;;;;;;22.88;11.30;;;4.10;99.90;;;;;;5000898;28;20146;-85
2022/01/16 12:51:55;;;;;;;19.50;10.40;;;4.20;99.90;;;;;;5004957;28;20026;-82
2022/01/16 12:54:32;;;;;;;17.52;9.27;;;4.20;99.90;;;;;;4996326;28;20023;-82
2022/01/16 12:57:02;;;;;;;19.27;9.88;;;4.30;99.90;;;;;;4994722;28;20073;-82
2022/01/16 12:59:35;;;;;;;18.67;10.30;;;4.50;99.90;;;;;;4971334;28;20352;-82
2022/01/16 13:02:03;;;;;;;14.88;8.45;;;4.80;99.90;;;;;;4984688;28;20089;-82
2022/01/16 13:04:30;;;;;;;18.65;9.57;;;5.00;99.90;;;;;;5001260;28;20105;-82
2022/01/16 13:07:03;;;;;;;18.98;9.30;;;5.00;99.90;;;;;;5015924;28;20097;-81
2022/01/16 13:09:30;;;;;;;19.27;10.15;;;4.80;99.90;;;;;;4994833;28;20058;-81
2022/01/16 13:11:59;;;;;;;19.08;9.80;;;4.70;99.90;;;;;;5001400;28;20096;-81
2022/01/16 13:14:33;;;;;;;18.08;9.48;;;4.50;99.90;;;;;;4994018;28;20045;-82
2022/01/16 13:17:11;;;;;;;20.10;10.20;;;4.50;99.90;;;;;;5005178;28;20039;-83
2022/01/16 13:19:40;;;;;;;15.70;8.55;;;4.60;99.90;;;;;;4984641;28;20041;-82
2022/01/16 13:24:44;;;;;;;16.17;8.85;;;4.60;99.90;;;;;;5004851;28;20076;-81
2022/01/16 13:27:15;;;;;;;15.10;8.38;;;4.60;99.90;;;;;;5004260;28;20062;-82
2022/01/16 13:29:44;;;;;;;17.17;8.95;;;4.70;99.90;;;;;;5002661;28;20407;-81
2022/01/16 13:32:14;;;;;;;19.92;9.57;;;4.80;99.90;;;;;;4985087;28;20034;-82
2022/01/16 13:34:46;;;;;;;16.92;8.68;;;4.70;99.90;;;;;;5004270;28;20041;-81
2022/01/16 13:37:18;;;;;;;17.60;9.00;;;4.80;99.90;;;;;;4986748;28;20050;-81
2022/01/16 13:39:46;;;;;;;18.40;9.05;;;4.70;99.90;;;;;;4991626;28;20417;-81
2022/01/16 13:45:21;;;;;;;18.33;9.88;;;4.80;99.90;;;;;;5004618;28;20217;-80
2022/01/16 13:48:07;;;;;;;18.00;9.70;;;4.90;99.90;;;;;;5020328;28;20097;-79
2022/01/16 13:51:14;;;;;;;18.42;9.52;;;5.10;99.90;;;;;;5004727;28;20030;-79
2022/01/16 13:53:44;;;;;;;16.23;8.77;;;5.30;99.90;;;;;;4991371;28;20126;-79
2022/01/16 13:56:27;;;;;;;16.48;8.40;;;5.20;99.90;;;;;;5004946;28;20135;-79
2022/01/16 13:58:56;;;;;;;18.40;9.65;;;5.10;99.90;;;;;;5019956;28;20050;-78
2022/01/16 14:01:39;;;;;;;17.35;9.27;;;5.20;99.90;;;;;;5002479;28;20233;-79
2022/01/16 14:04:15;;;;;;;16.38;8.80;;;5.20;99.90;;;;;;5003604;28;20089;-78
2022/01/16 14:07:33;;;;;;;16.98;8.95;;;5.30;99.90;;;;;;4999973;28;20019;-78
2022/01/16 14:09:59;;;;;;;16.75;8.85;;;5.10;99.90;;;;;;4984278;28;20752;-79
2022/01/16 14:12:26;;;;;;;16.98;9.50;;;5.00;99.90;;;;;;4984776;28;20086;-79
2022/01/16 14:14:52;;;;;;;16.75;9.20;;;4.90;99.90;;;;;;4968377;28;20224;-79